Time;durP1;ratioP1;P1;durP2;ratioP2;P2;SDS_P1;SDS_P2;PMS_P1;PMS_P2;Temp;Humidity;BMP_temperature;BMP_pressure;BME280_temperature;BME280_humidity;BME280_pressure;Samples;Min_cycle;Max_cycle;Signal;HPM_P1;HPM_P2
2021/05/03 00:00:14;;;;;;;20.98;14.77;;;;;;;3.33;91.29;95912.88;5042013;28;20076;-69
2021/05/03 00:03:00;;;;;;;19.42;12.48;;;;;;;3.35;90.17;95904.84;5026339;28;20630;-69
2021/05/03 00:05:27;;;;;;;19.48;13.00;;;;;;;3.40;90.38;95902.41;5032498;28;20046;-69
2021/05/03 00:07:53;;;;;;;16.42;11.93;;;;;;;3.45;89.34;95910.38;5025347;28;20066;-68
2021/05/03 00:10:19;;;;;;;17.58;12.00;;;;;;;3.44;90.08;95908.78;5039540;28;20525;-68
2021/05/03 00:12:45;;;;;;;15.10;11.60;;;;;;;3.47;89.93;95908.34;5040033;28;20053;-69
2021/05/03 00:15:13;;;;;;;16.35;12.23;;;;;;;3.39;89.91;95913.81;5032554;28;20049;-68
2021/05/03 00:17:39;;;;;;;18.98;12.52;;;;;;;3.38;90.72;95914.84;5026656;28;20041;-68
2021/05/03 00:20:06;;;;;;;18.08;12.23;;;;;;;3.43;90.08;95917.59;5029836;28;20049;-69
2021/05/03 00:22:32;;;;;;;17.77;12.40;;;;;;;3.46;89.81;95917.16;5031884;28;20037;-68
2021/05/03 00:24:58;;;;;;;17.42;12.00;;;;;;;3.45;89.93;95923.41;5030673;28;20534;-68
2021/05/03 00:27:23;;;;;;;17.27;12.52;;;;;;;3.46;89.93;95927.56;5015753;28;20423;-69
2021/05/03 00:29:49;;;;;;;14.98;11.32;;;;;;;3.54;89.73;95924.72;5034083;28;20045;-69
2021/05/03 00:32:14;;;;;;;18.52;12.45;;;;;;;3.54;89.58;95924.72;5029124;28;20096;-68
2021/05/03 00:34:40;;;;;;;18.10;12.52;;;;;;;3.52;90.03;95926.75;5040107;28;20040;-68
2021/05/03 00:37:06;;;;;;;18.83;12.20;;;;;;;3.46;90.89;95927.56;5049283;28;20064;-68
2021/05/03 00:39:31;;;;;;;15.98;11.63;;;;;;;3.41;90.64;95930.03;5032120;28;20059;-68
2021/05/03 00:41:57;;;;;;;16.45;11.30;;;;;;;3.45;90.30;95920.81;5028805;28;20038;-68
2021/05/03 00:44:24;;;;;;;16.83;11.73;;;;;;;3.46;90.08;95933.59;5030378;28;20052;-68
2021/05/03 00:46:51;;;;;;;15.57;10.40;;;;;;;3.56;89.76;95917.50;5019267;28;20084;-68
2021/05/03 00:49:16;;;;;;;13.20;9.73;;;;;;;3.66;88.64;95916.19;5031241;28;20041;-68
2021/05/03 00:51:42;;;;;;;14.60;10.70;;;;;;;3.59;89.22;95913.66;5036053;28;20049;-69
2021/05/03 00:54:08;;;;;;;14.88;10.52;;;;;;;3.50;90.16;95923.53;5032007;28;20045;-68
2021/05/03 00:56:33;;;;;;;15.15;10.98;;;;;;;3.50;89.82;95918.34;5027894;28;20042;-68
2021/05/03 00:59:00;;;;;;;15.13;10.20;;;;;;;3.48;89.80;95920.38;5031489;28;20103;-69
2021/05/03 01:01:25;;;;;;;17.48;10.98;;;;;;;3.45;90.23;95926.00;5031901;28;20037;-69
2021/05/03 01:03:51;;;;;;;15.52;10.52;;;;;;;3.39;90.59;95922.44;5021949;28;20514;-68
2021/05/03 01:06:18;;;;;;;16.35;11.07;;;;;;;3.42;90.31;95921.19;5013331;28;20034;-68
2021/05/03 01:08:46;;;;;;;16.27;10.75;;;;;;;3.48;89.98;95930.78;5028074;28;20449;-68
2021/05/03 01:11:11;;;;;;;14.13;10.43;;;;;;;3.49;89.90;95927.13;5030578;28;20037;-68
2021/05/03 01:13:38;;;;;;;17.75;12.05;;;;;;;3.40;90.68;95928.44;5035356;28;20110;-68
2021/05/03 01:16:04;;;;;;;17.13;12.02;;;;;;;3.45;90.41;95931.22;5021723;28;20048;-68
2021/05/03 01:18:34;;;;;;;13.15;9.63;;;;;;;3.53;89.73;95933.50;5031633;28;20045;-68
2021/05/03 01:21:00;;;;;;;14.50;10.07;;;;;;;3.53;90.47;95927.53;5031429;28;20037;-68
2021/05/03 01:23:25;;;;;;;16.08;10.70;;;;;;;3.62;90.09;95932.25;5029936;28;20534;-68
2021/05/03 01:25:51;;;;;;;15.75;10.88;;;;;;;3.61;91.02;95940.28;5024532;28;20045;-68
2021/05/03 01:28:19;;;;;;;18.65;11.15;;;;;;;3.61;90.56;95940.28;5031591;28;20380;-68
2021/05/03 01:30:47;;;;;;;17.38;11.85;;;;;;;3.67;90.21;95943.81;5039797;28;20046;-68
2021/05/03 01:33:15;;;;;;;18.00;11.93;;;;;;;3.58;90.67;95946.69;5021754;28;20397;-68
2021/05/03 01:35:43;;;;;;;16.85;11.00;;;;;;;3.58;89.72;95951.91;5034350;28;20507;-68
2021/05/03 01:38:09;;;;;;;15.98;10.88;;;;;;;3.56;90.05;95947.91;5037424;28;20045;-68
2021/05/03 01:40:37;;;;;;;18.40;11.93;;;;;;;3.57;90.27;95944.31;5032084;28;20060;-68
2021/05/03 01:43:17;;;;;;;16.77;11.05;;;;;;;3.62;89.74;95942.66;5030806;28;20531;-68
2021/05/03 01:45:45;;;;;;;18.60;11.63;;;;;;;3.63;89.42;95944.25;5036049;28;20050;-68
2021/05/03 01:48:13;;;;;;;16.50;11.77;;;;;;;3.68;90.61;95942.78;5015697;28;20044;-67
2021/05/03 01:50:39;;;;;;;18.55;12.70;;;;;;;3.59;91.11;95937.88;5046128;28;20045;-68
2021/05/03 01:53:06;;;;;;;20.20;13.32;;;;;;;3.45;91.45;95937.19;5030492;28;20041;-68
2021/05/03 01:55:33;;;;;;;19.30;13.13;;;;;;;3.53;91.29;95938.72;5024042;28;20037;-68
2021/05/03 01:57:59;;;;;;;19.88;13.48;;;;;;;3.57;90.54;95939.88;5037308;28;20082;-68
2021/05/03 02:00:25;;;;;;;21.95;13.93;;;;;;;3.50;91.26;95933.94;5029808;28;20128;-68
2021/05/03 02:02:50;;;;;;;20.33;12.88;;;;;;;3.47;90.65;95934.38;5031044;28;20128;-68
2021/05/03 02:05:21;;;;;;;20.80;14.15;;;;;;;3.53;90.29;95933.50;5029597;28;20091;-68
2021/05/03 02:08:07;;;;;;;20.40;13.68;;;;;;;3.53;90.39;95933.50;5030205;28;20041;-68
2021/05/03 02:10:33;;;;;;;23.05;13.88;;;;;;;3.53;90.60;95940.53;5038720;28;20057;-68
2021/05/03 02:13:00;;;;;;;22.92;14.77;;;;;;;3.52;91.63;95936.34;5029751;28;20510;-68
2021/05/03 02:15:28;;;;;;;21.58;14.30;;;;;;;3.49;91.75;95937.56;5036958;28;20041;-68
2021/05/03 02:17:55;;;;;;;26.63;15.02;;;;;;;3.46;92.45;95937.97;5035264;28;20487;-68
2021/05/03 02:20:21;;;;;;;22.10;15.02;;;;;;;3.45;91.88;95939.78;5031528;28;20046;-68
2021/05/03 02:22:47;;;;;;;24.60;14.82;;;;;;;3.43;92.08;95938.41;5028013;28;20107;-68
2021/05/03 02:25:13;;;;;;;23.77;14.35;;;;;;;3.43;92.65;95943.63;5020021;28;20037;-68
2021/05/03 02:27:39;;;;;;;24.92;14.90;;;;;;;3.44;92.59;95940.00;5029069;28;20408;-68
2021/05/03 02:30:07;;;;;;;26.42;15.20;;;;;;;3.41;93.09;95943.03;5037158;28;20045;-68
2021/05/03 02:32:36;;;;;;;25.63;15.30;;;;;;;3.43;92.87;95933.22;5032710;28;20053;-68
2021/05/03 02:35:07;;;;;;;25.33;15.23;;;;;;;3.37;93.00;95934.06;5030713;28;20452;-68
2021/05/03 02:37:33;;;;;;;21.40;13.85;;;;;;;3.42;92.54;95942.00;5031767;28;20034;-68
2021/05/03 02:39:59;;;;;;;23.00;14.20;;;;;;;3.37;93.55;95939.28;5033887;28;20099;-67
2021/05/03 02:42:25;;;;;;;25.45;14.32;;;;;;;3.46;92.94;95932.78;5030277;28;20064;-68
2021/05/03 02:44:51;;;;;;;23.50;14.57;;;;;;;3.43;92.63;95938.41;5030802;28;20053;-68
2021/05/03 02:47:17;;;;;;;24.98;14.73;;;;;;;3.37;93.21;95934.06;5027841;28;20056;-68
2021/05/03 02:49:42;;;;;;;28.77;15.88;;;;;;;3.36;93.37;95932.47;5031686;28;20037;-68
2021/05/03 02:52:08;;;;;;;25.67;15.63;;;;;;;3.44;92.41;95929.59;5043401;28;20099;-67
2021/05/03 02:54:34;;;;;;;25.48;14.88;;;;;;;3.48;93.07;95938.59;5035174;28;20049;-68
2021/05/03 02:57:00;;;;;;;24.55;15.18;;;;;;;3.49;93.52;95937.56;5032443;28;20045;-68
2021/05/03 02:59:25;;;;;;;22.67;14.27;;;;;;;3.48;92.61;95946.38;5036175;28;20431;-68
2021/05/03 03:01:51;;;;;;;23.48;14.95;;;;;;;3.51;92.33;95945.16;5030011;28;20265;-68
2021/05/03 03:04:17;;;;;;;26.35;15.68;;;;;;;3.51;92.63;95951.16;5029318;28;20096;-68
2021/05/03 03:06:43;;;;;;;23.52;14.52;;;;;;;3.49;92.82;95947.97;5016647;28;20454;-68
2021/05/03 03:09:09;;;;;;;26.05;16.27;;;;;;;3.46;92.93;95953.59;5015026;28;20044;-68
2021/05/03 03:11:35;;;;;;;25.20;15.48;;;;;;;3.46;92.49;95954.41;5036975;28;20046;-68
2021/05/03 03:14:02;;;;;;;22.50;14.40;;;;;;;3.54;92.68;95955.94;5039664;28;20052;-68
2021/05/03 03:16:28;;;;;;;21.83;14.70;;;;;;;3.56;92.06;95953.13;5025341;28;20057;-67
2021/05/03 03:18:58;;;;;;;22.48;14.68;;;;;;;3.58;91.79;95957.09;5012053;28;20042;-68
2021/05/03 03:21:24;;;;;;;22.35;14.40;;;;;;;3.52;92.47;95947.56;5029288;28;20041;-67
2021/05/03 03:23:50;;;;;;;22.67;14.90;;;;;;;3.52;91.78;95954.56;5028313;28;20107;-68
2021/05/03 03:26:16;;;;;;;23.98;14.32;;;;;;;3.47;92.08;95950.00;5025845;28;20049;-68
2021/05/03 03:28:42;;;;;;;19.15;13.38;;;;;;;3.48;91.61;95946.38;5030108;28;20446;-67
2021/05/03 03:31:08;;;;;;;19.35;13.02;;;;;;;3.43;90.82;95948.81;5031628;28;20038;-68
2021/05/03 03:33:33;;;;;;;24.35;14.23;;;;;;;3.29;93.15;95948.94;5037227;28;20068;-67
2021/05/03 03:35:59;;;;;;;19.65;12.95;;;;;;;3.15;91.69;95952.63;5030671;28;20076;-68
2021/05/03 03:38:24;;;;;;;19.65;11.63;;;;;;;3.16;90.94;95956.84;5018813;28;20107;-68
2021/05/03 03:40:50;;;;;;;18.50;11.70;;;;;;;3.12;90.76;95953.06;5023311;28;20037;-68
2021/05/03 03:43:16;;;;;;;17.98;12.38;;;;;;;2.95;91.49;95952.78;5032534;28;20037;-68
2021/05/03 03:45:42;;;;;;;17.65;12.23;;;;;;;2.98;91.86;95957.56;5027985;28;20085;-68
2021/05/03 03:48:07;;;;;;;23.55;13.55;;;;;;;2.92;92.60;95964.38;5033855;28;20041;-68
2021/05/03 03:50:34;;;;;;;24.20;14.07;;;;;;;2.89;92.71;95964.81;5035495;28;20037;-68
2021/05/03 03:53:00;;;;;;;22.00;12.80;;;;;;;2.92;92.26;95968.78;5035335;28;20734;-67
2021/05/03 03:55:27;;;;;;;21.25;13.07;;;;;;;2.84;92.50;95967.22;5030829;28;20049;-68
2021/05/03 03:57:53;;;;;;;21.77;13.63;;;;;;;2.79;92.90;95969.66;5028948;28;20080;-68
2021/05/03 04:00:19;;;;;;;24.27;14.98;;;;;;;2.81;93.38;95978.03;5033322;28;20045;-67
2021/05/03 04:02:46;;;;;;;23.98;14.40;;;;;;;2.71;92.87;95988.09;5032752;28;20046;-68
2021/05/03 04:08:12;;;;;;;25.42;15.27;;;;;;;2.59;94.67;96001.72;5022813;28;20038;-68
2021/05/03 04:21:43;;;;;;;23.92;14.25;;;;;;;2.67;93.09;96002.50;5031567;28;20171;-68
2021/05/03 04:26:38;;;;;;;22.70;14.05;;;;;;;2.79;92.96;96011.25;5025125;28;20038;-68
2021/05/03 04:29:04;;;;;;;23.60;14.68;;;;;;;2.84;92.33;96014.00;5029402;28;20068;-68
2021/05/03 04:31:29;;;;;;;24.25;13.85;;;;;;;2.88;91.59;96009.22;5032212;28;20514;-68
2021/05/03 04:33:55;;;;;;;22.00;13.82;;;;;;;2.85;92.15;96010.41;5032501;28;20042;-68
2021/05/03 04:36:21;;;;;;;22.52;13.80;;;;;;;2.83;92.07;96012.44;5029887;28;20415;-68
2021/05/03 04:38:47;;;;;;;24.98;14.07;;;;;;;2.79;92.88;96016.47;5028819;28;20117;-68
2021/05/03 04:41:13;;;;;;;24.27;14.73;;;;;;;2.79;92.60;96013.84;5030889;28;20046;-68
2021/05/03 04:43:39;;;;;;;21.45;13.73;;;;;;;2.87;92.94;96013.59;5031551;28;20048;-68
2021/05/03 04:46:05;;;;;;;23.45;13.82;;;;;;;2.97;92.06;96017.56;5031997;28;20042;-68
2021/05/03 04:48:31;;;;;;;22.33;14.48;;;;;;;3.02;91.62;96022.94;5027637;28;20038;-68
2021/05/03 04:50:57;;;;;;;23.73;14.48;;;;;;;3.02;92.27;96020.34;5032522;28;20049;-67
2021/05/03 04:53:23;;;;;;;24.73;14.63;;;;;;;3.07;92.59;96023.09;5031859;28;20044;-68
2021/05/03 04:55:49;;;;;;;22.33;14.25;;;;;;;3.25;92.04;96028.41;5031209;28;20417;-67
2021/05/03 04:58:15;;;;;;;24.70;14.52;;;;;;;3.39;91.48;96028.31;5022189;28;20049;-68
2021/05/03 05:00:41;;;;;;;22.35;13.77;;;;;;;3.46;90.32;96021.25;5031179;28;20041;-68
2021/05/03 05:03:06;;;;;;;21.58;13.35;;;;;;;3.48;91.22;96024.44;5031375;28;20045;-68
2021/05/03 05:05:32;;;;;;;19.88;13.25;;;;;;;3.46;91.67;96021.25;5031185;28;20064;-67
2021/05/03 05:07:58;;;;;;;20.92;13.93;;;;;;;3.47;91.69;96023.63;5022211;28;20389;-68
2021/05/03 05:10:24;;;;;;;21.77;13.55;;;;;;;3.51;91.55;96034.44;5035018;28;20044;-67
2021/05/03 05:12:50;;;;;;;19.73;13.20;;;;;;;3.64;90.61;96028.34;5036638;28;20042;-69
2021/05/03 05:15:16;;;;;;;19.08;12.73;;;;;;;3.70;90.72;96037.88;5038728;28;20044;-68
2021/05/03 05:17:42;;;;;;;18.70;12.82;;;;;;;3.73;90.13;96031.47;5022358;28;20112;-68
2021/05/03 05:20:08;;;;;;;20.52;13.63;;;;;;;3.83;90.72;96036.97;5030838;28;20049;-68
2021/05/03 05:22:36;;;;;;;20.85;13.38;;;;;;;4.07;89.56;96042.41;5031975;28;20041;-68
2021/05/03 05:25:02;;;;;;;20.45;12.05;;;;;;;4.12;88.06;96037.34;5028655;28;20423;-68
2021/05/03 05:27:28;;;;;;;19.05;12.65;;;;;;;4.33;88.52;96041.34;5031180;28;20392;-68
2021/05/03 05:29:54;;;;;;;20.95;12.93;;;;;;;4.38;88.79;96038.09;5037520;28;20045;-68
2021/05/03 05:32:19;;;;;;;18.25;12.25;;;;;;;4.19;88.51;96043.28;5042299;28;20041;-68
2021/05/03 05:34:45;;;;;;;16.38;10.90;;;;;;;4.15;86.76;96036.91;5040266;28;20087;-68
2021/05/03 05:37:11;;;;;;;20.05;12.48;;;;;;;4.15;87.28;96042.09;5030795;28;20092;-68
2021/05/03 05:39:37;;;;;;;17.30;11.55;;;;;;;4.22;88.13;96042.06;5027360;28;20120;-68
2021/05/03 05:42:04;;;;;;;20.17;12.43;;;;;;;4.25;88.54;96047.66;5030793;28;20060;-68
2021/05/03 05:44:30;;;;;;;19.60;11.93;;;;;;;4.36;88.14;96056.53;5031481;28;20045;-68
2021/05/03 05:46:55;;;;;;;18.63;12.48;;;;;;;4.33;88.58;96052.56;5036362;28;20041;-68
2021/05/03 05:49:21;;;;;;;18.45;12.18;;;;;;;4.30;87.95;96062.63;5027678;28;20466;-68
2021/05/03 05:51:46;;;;;;;19.75;13.35;;;;;;;4.34;88.18;96059.38;5029211;28;20454;-68
2021/05/03 05:54:12;;;;;;;17.20;12.73;;;;;;;4.39;88.88;96060.53;5029699;28;20056;-68
2021/05/03 05:56:38;;;;;;;17.90;12.05;;;;;;;4.36;86.76;96066.19;5013348;28;20042;-68
2021/05/03 05:59:04;;;;;;;17.05;11.40;;;;;;;4.31;85.51;96059.81;5019755;28;20100;-67
2021/05/03 06:01:29;;;;;;;20.50;11.95;;;;;;;4.38;86.89;96064.13;5028583;28;20038;-68
2021/05/03 06:03:55;;;;;;;15.75;10.70;;;;;;;4.38;85.41;96058.94;5026293;28;20403;-68
2021/05/03 06:06:20;;;;;;;16.02;12.20;;;;;;;4.38;87.39;96064.94;5022561;28;20049;-68
2021/05/03 06:08:47;;;;;;;16.52;11.10;;;;;;;4.38;86.48;96064.13;5022758;28;20377;-68
2021/05/03 06:11:13;;;;;;;16.67;11.52;;;;;;;4.36;86.23;96074.00;5021931;28;20490;-68
2021/05/03 06:13:39;;;;;;;18.42;12.63;;;;;;;4.38;85.55;96064.94;5030201;28;20049;-68
2021/05/03 06:16:05;;;;;;;15.63;10.93;;;;;;;4.45;84.94;96070.09;5030834;28;20041;-69
2021/05/03 06:18:31;;;;;;;18.70;11.40;;;;;;;4.50;84.73;96072.84;5030243;28;20037;-67
2021/05/03 06:20:56;;;;;;;18.00;11.90;;;;;;;4.40;86.14;96072.56;5030148;28;20045;-68
2021/05/03 06:23:22;;;;;;;18.42;11.77;;;;;;;4.59;85.15;96071.53;5035471;28;20040;-67
2021/05/03 06:25:47;;;;;;;19.60;12.75;;;;;;;4.58;86.13;96080.34;5028134;28;20418;-67
2021/05/03 06:28:13;;;;;;;17.25;11.82;;;;;;;4.53;85.77;96075.00;5029656;28;20052;-67
2021/05/03 06:30:39;;;;;;;19.00;12.27;;;;;;;4.58;85.16;96075.16;5029959;28;20041;-68
2021/05/03 06:33:05;;;;;;;17.75;11.98;;;;;;;4.56;84.82;96079.00;5028787;28;20060;-68
2021/05/03 06:35:32;;;;;;;18.25;12.25;;;;;;;4.57;85.86;96078.78;5030577;28;20041;-67
2021/05/03 06:37:57;;;;;;;18.42;12.50;;;;;;;4.64;85.93;96063.88;5023100;28;20056;-68
2021/05/03 06:40:23;;;;;;;19.85;13.27;;;;;;;4.80;85.79;96072.13;5011630;28;20046;-68
2021/05/03 06:42:49;;;;;;;18.02;12.60;;;;;;;5.01;84.94;96078.69;5030292;28;20052;-68
2021/05/03 06:45:20;;;;;;;16.75;10.85;;;;;;;4.98;84.53;96077.31;5030639;28;20044;-68
2021/05/03 06:47:48;;;;;;;19.40;11.80;;;;;;;5.02;83.66;96075.84;5028952;28;20247;-68
2021/05/03 06:50:15;;;;;;;16.05;11.02;;;;;;;5.13;81.69;96081.34;5029840;28;20121;-68
2021/05/03 06:52:44;;;;;;;20.80;13.10;;;;;;;5.20;84.70;96087.25;5028165;28;20038;-68
2021/05/03 06:55:10;;;;;;;16.48;11.27;;;;;;;5.60;80.81;96086.72;5023772;28;20070;-68
2021/05/03 06:57:36;;;;;;;18.52;11.27;;;;;;;5.61;80.17;96083.09;5028190;28;20037;-68
2021/05/03 07:00:03;;;;;;;19.05;12.52;;;;;;;5.67;82.64;96087.41;5028917;28;20052;-68
2021/05/03 07:02:28;;;;;;;16.98;11.90;;;;;;;5.78;79.12;96087.69;5026374;28;20045;-69
2021/05/03 07:04:55;;;;;;;16.38;10.77;;;;;;;5.77;80.39;96086.09;5027734;28;20034;-69
2021/05/03 07:07:21;;;;;;;15.43;10.10;;;;;;;5.86;78.41;96089.97;5028671;28;20054;-68
2021/05/03 07:09:47;;;;;;;17.45;10.30;;;;;;;5.94;76.59;96092.25;5031108;28;20049;-68
2021/05/03 07:12:14;;;;;;;15.45;10.45;;;;;;;5.84;76.23;96092.00;5040869;28;20038;-68
2021/05/03 07:14:40;;;;;;;17.10;10.05;;;;;;;5.81;76.63;96082.81;5030750;28;20041;-66
2021/05/03 07:17:06;;;;;;;14.60;10.30;;;;;;;5.85;75.68;96081.34;5029495;28;20120;-67
2021/05/03 07:19:33;;;;;;;15.32;9.98;;;;;;;6.03;75.07;96085.72;5033043;28;20163;-68
2021/05/03 07:22:00;;;;;;;15.80;9.32;;;;;;;6.30;73.73;96090.50;5034517;28;20657;-68
2021/05/03 07:24:26;;;;;;;17.17;9.65;;;;;;;6.44;74.72;96095.47;5036055;28;20041;-67
2021/05/03 07:26:51;;;;;;;13.88;9.57;;;;;;;6.52;73.19;96089.91;5034056;28;20422;-67
2021/05/03 07:29:17;;;;;;;14.95;9.80;;;;;;;6.44;76.04;96090.25;5033997;28;20041;-69
2021/05/03 07:31:43;;;;;;;14.98;9.77;;;;;;;6.31;73.89;96086.88;5033141;28;20176;-68
2021/05/03 07:34:10;;;;;;;15.35;9.55;;;;;;;6.20;75.33;96085.03;5032640;28;20037;-68
2021/05/03 07:36:35;;;;;;;14.00;9.40;;;;;;;6.26;74.74;96099.03;5028409;28;20101;-70
2021/05/03 07:39:01;;;;;;;14.50;9.15;;;;;;;6.41;72.97;96087.09;5031241;28;20049;-70
2021/05/03 07:41:27;;;;;;;20.30;9.02;;;;;;;6.68;71.27;96083.19;5032929;28;20115;-70
2021/05/03 07:43:53;;;;;;;14.45;9.00;;;;;;;6.92;72.35;96081.31;5032948;28;20476;-71
2021/05/03 07:46:24;;;;;;;12.25;8.35;;;;;;;6.86;70.05;96082.25;5033274;28;20088;-69
2021/05/03 07:48:51;;;;;;;14.32;8.65;;;;;;;6.66;71.04;96083.41;5033329;28;20045;-71
2021/05/03 07:51:16;;;;;;;12.15;8.45;;;;;;;6.81;72.02;96084.75;5034045;28;20046;-70
2021/05/03 07:53:42;;;;;;;10.90;7.70;;;;;;;6.97;70.02;96083.22;5032668;28;20049;-70
2021/05/03 07:56:07;;;;;;;13.65;8.55;;;;;;;6.96;70.75;96077.22;5030296;28;20052;-70
2021/05/03 07:58:33;;;;;;;13.32;7.95;;;;;;;7.23;68.73;96074.84;5033031;28;20045;-70
2021/05/03 08:00:59;;;;;;;13.50;9.00;;;;;;;7.24;71.22;96078.25;5032465;28;20046;-70
2021/05/03 08:03:24;;;;;;;11.15;7.80;;;;;;;7.42;67.23;96085.91;5033044;28;20049;-69
2021/05/03 08:05:50;;;;;;;11.90;7.93;;;;;;;7.40;68.08;96088.00;5020421;28;20429;-67
2021/05/03 08:08:15;;;;;;;11.32;7.72;;;;;;;7.46;64.48;96092.28;5029985;28;20042;-67
2021/05/03 08:10:41;;;;;;;10.20;7.25;;;;;;;7.42;64.59;96090.38;5032804;28;20556;-67
2021/05/03 08:13:06;;;;;;;11.82;7.75;;;;;;;7.36;67.81;96089.47;5032657;28;20046;-67
2021/05/03 08:15:32;;;;;;;11.73;8.00;;;;;;;7.33;66.26;96087.34;5031258;28;20422;-67
2021/05/03 08:17:58;;;;;;;10.43;7.00;;;;;;;7.26;65.30;96086.69;5030485;28;20323;-67
2021/05/03 08:20:23;;;;;;;10.15;6.97;;;;;;;7.07;65.45;96089.47;5023281;28;20046;-67
2021/05/03 08:22:49;;;;;;;11.35;7.35;;;;;;;7.15;64.71;96096.16;5031763;28;20200;-67
2021/05/03 08:25:15;;;;;;;9.48;6.90;;;;;;;7.26;65.67;96091.91;5027708;28;20050;-67
2021/05/03 08:27:40;;;;;;;10.25;7.28;;;;;;;7.24;63.09;96096.56;5027005;28;20049;-67
2021/05/03 08:30:08;;;;;;;11.02;7.10;;;;;;;7.53;64.13;96091.34;5030943;28;20096;-68
2021/05/03 08:32:35;;;;;;;11.73;7.60;;;;;;;7.67;63.85;96091.84;5033972;28;20041;-67
2021/05/03 08:35:01;;;;;;;11.55;7.72;;;;;;;7.82;64.23;96093.94;5040403;28;20057;-67
2021/05/03 08:37:27;;;;;;;11.40;7.38;;;;;;;7.67;63.32;96097.91;5022597;28;20041;-68
2021/05/03 08:39:52;;;;;;;11.23;7.50;;;;;;;7.48;63.01;96107.75;5027906;28;20046;-68
2021/05/03 08:42:19;;;;;;;9.77;6.80;;;;;;;7.03;65.48;96109.28;5032068;28;20048;-67
2021/05/03 08:44:47;;;;;;;10.00;6.28;;;;;;;6.81;65.82;96121.38;5032888;28;20045;-67
2021/05/03 08:47:13;;;;;;;10.27;6.43;;;;;;;5.78;69.97;96130.28;5033955;28;20045;-66
2021/05/03 08:52:15;;;;;;;12.70;7.72;;;;;;;4.51;79.79;96116.13;5032385;28;20511;-67
2021/05/03 08:54:41;;;;;;;14.15;8.45;;;;;;;4.43;83.84;96108.59;5034778;28;20049;-67
2021/05/03 08:57:09;;;;;;;19.30;10.18;;;;;;;4.43;87.06;96108.59;5035704;28;20095;-67
2021/05/03 08:59:36;;;;;;;14.63;9.02;;;;;;;4.57;84.01;96110.06;5037944;28;20052;-67
2021/05/03 09:02:06;;;;;;;12.93;9.32;;;;;;;4.71;86.18;96104.72;5032637;28;20045;-66
2021/05/03 09:04:33;;;;;;;18.25;10.80;;;;;;;5.16;88.42;96096.56;5021960;28;20358;-67
2021/05/03 09:07:04;;;;;;;16.52;10.73;;;;;;;5.50;85.65;96102.13;5026848;28;20043;-67
2021/05/03 09:09:35;;;;;;;17.70;11.82;;;;;;;5.91;84.00;96082.25;5030352;28;20050;-67
2021/05/03 09:12:03;;;;;;;15.68;10.45;;;;;;;6.04;81.65;96086.50;5035530;28;20045;-67
2021/05/03 09:14:31;;;;;;;11.25;7.25;;;;;;;6.41;76.49;96079.25;5042758;28;20048;-66
2021/05/03 09:16:56;;;;;;;10.00;5.75;;;;;;;6.78;67.48;96069.53;5031215;28;20102;-67
2021/05/03 09:19:22;;;;;;;11.27;6.22;;;;;;;6.63;68.08;96078.66;5037541;28;20045;-67
2021/05/03 09:21:48;;;;;;;8.38;5.20;;;;;;;6.72;66.90;96061.59;5012490;28;20037;-67
2021/05/03 09:24:20;;;;;;;7.97;5.38;;;;;;;6.90;65.14;96065.84;5025716;28;20076;-67
2021/05/03 09:27:00;;;;;;;8.73;6.05;;;;;;;7.42;69.84;96067.59;5028763;28;20048;-67
2021/05/03 09:29:46;;;;;;;7.97;5.20;;;;;;;7.19;65.23;96070.31;5028633;28;20466;-67
2021/05/03 09:32:21;;;;;;;7.35;5.60;;;;;;;7.07;63.35;96067.75;5023650;28;20407;-67
2021/05/03 09:34:51;;;;;;;;;;;;;;;7.11;63.68;96061.81;5026991;28;20034;-67
2021/05/03 09:37:19;;;;;;;9.18;5.45;;;;;;;7.39;59.43;96060.22;5025348;28;19948;-67
2021/05/03 09:39:58;;;;;;;7.60;4.82;;;;;;;7.59;62.91;96049.28;5037013;28;20037;-67
2021/05/03 09:42:40;;;;;;;9.25;5.63;;;;;;;7.54;61.21;96041.38;5030445;28;20049;-67
2021/05/03 09:45:11;;;;;;;8.30;5.63;;;;;;;7.74;61.43;96040.91;5031408;28;20557;-68
2021/05/03 09:47:39;;;;;;;8.05;5.53;;;;;;;7.95;64.46;96043.84;5026796;28;20049;-67
2021/05/03 09:50:08;;;;;;;9.55;5.85;;;;;;;8.44;64.78;96037.97;5021666;28;20048;-66
2021/05/03 09:52:34;;;;;;;9.80;5.13;;;;;;;8.58;57.31;96044.47;5029901;28;20042;-67
2021/05/03 09:55:00;;;;;;;8.68;5.30;;;;;;;8.89;62.03;96049.28;5030766;28;20053;-68
2021/05/03 09:57:25;;;;;;;8.82;4.75;;;;;;;8.95;55.27;96049.13;5021035;28;20056;-67
2021/05/03 09:59:54;;;;;;;7.18;4.65;;;;;;;8.52;56.44;96044.63;5030348;28;20041;-67
2021/05/03 10:02:32;;;;;;;9.88;5.80;;;;;;;8.30;62.39;96048.00;5030964;28;20067;-67
2021/05/03 10:07:37;;;;;;;8.63;4.57;;;;;;;8.21;57.96;96055.47;5023341;28;20053;-67
2021/05/03 10:12:31;;;;;;;7.65;4.75;;;;;;;8.87;59.57;96046.13;5030183;28;20526;-68
2021/05/03 10:14:58;;;;;;;8.75;4.30;;;;;;;9.12;52.24;96049.06;5030151;28;20053;-68
2021/05/03 10:17:26;;;;;;;8.35;4.18;;;;;;;8.93;52.17;96050.41;5033010;28;20120;-67
2021/05/03 10:19:55;;;;;;;7.07;4.22;;;;;;;8.72;54.62;96039.66;5028609;28;20107;-67
2021/05/03 10:22:22;;;;;;;6.85;4.25;;;;;;;8.47;54.89;96043.53;5028843;28;20041;-67
2021/05/03 10:24:51;;;;;;;7.50;4.55;;;;;;;9.07;53.85;96050.81;5016395;28;20042;-68
2021/05/03 10:27:19;;;;;;;5.93;4.13;;;;;;;9.95;50.17;96040.06;5024972;28;20491;-67
2021/05/03 10:29:46;;;;;;;6.35;4.20;;;;;;;10.77;52.91;96034.50;5028676;28;20045;-67
2021/05/03 10:32:23;;;;;;;6.68;3.53;;;;;;;10.67;44.09;96034.47;5030123;28;20041;-67
2021/05/03 10:34:50;;;;;;;5.47;3.55;;;;;;;10.12;48.85;96039.91;5022574;28;20088;-67
2021/05/03 10:37:36;;;;;;;4.28;3.20;;;;;;;9.25;45.79;96036.56;5023816;28;20069;-67
2021/05/03 10:40:29;;;;;;;5.00;3.70;;;;;;;9.28;45.76;96041.31;5030012;28;20133;-67
2021/05/03 10:43:01;;;;;;;6.75;4.13;;;;;;;9.46;50.08;96043.59;5030418;28;20882;-67
2021/05/03 10:46:00;;;;;;;6.13;4.00;;;;;;;9.52;46.74;96040.00;5028079;28;20680;-68
2021/05/03 10:51:32;;;;;;;4.93;3.70;;;;;;;11.10;44.06;96027.25;5028808;28;20056;-67
2021/05/03 10:54:18;;;;;;;7.15;3.70;;;;;;;11.20;46.78;96016.72;5030751;28;20048;-66
2021/05/03 10:56:43;;;;;;;6.10;4.40;;;;;;;11.11;46.67;96020.16;5014694;28;20041;-68
2021/05/03 10:59:11;;;;;;;7.28;4.30;;;;;;;11.47;45.22;96010.44;5027252;28;20049;-68
2021/05/03 11:01:52;;;;;;;6.40;4.63;;;;;;;13.49;46.71;96016.78;5009961;28;20034;-70
2021/05/03 11:04:25;;;;;;;8.98;5.75;;;;;;;12.20;44.89;96012.03;5010889;28;20045;-69
2021/05/03 11:06:50;;;;;;;11.43;6.20;;;;;;;12.96;53.08;96012.84;5025056;28;20041;-69
2021/05/03 11:09:25;;;;;;;8.65;6.30;;;;;;;13.72;46.46;96006.56;5025338;28;20044;-69
2021/05/03 11:11:52;;;;;;;8.80;5.68;;;;;;;15.63;40.04;95998.03;5039219;28;20079;-69
2021/05/03 11:14:21;;;;;;;8.50;5.35;;;;;;;15.17;43.00;95988.06;5050548;28;20453;-69
2021/05/03 11:16:47;;;;;;;8.32;5.70;;;;;;;14.69;42.19;95995.03;5028053;28;20116;-68
2021/05/03 11:19:50;;;;;;;9.05;5.82;;;;;;;16.00;42.75;95995.59;5019145;28;20072;-69
2021/05/03 11:22:20;;;;;;;8.02;5.45;;;;;;;13.06;40.86;95987.41;5020589;28;20555;-69
2021/05/03 11:24:57;;;;;;;8.27;5.70;;;;;;;11.24;45.32;95977.47;5030546;28;20041;-70
2021/05/03 11:30:26;;;;;;;11.40;5.95;;;;;;;13.45;44.27;95981.41;5038692;28;20068;-69
2021/05/03 11:32:54;;;;;;;7.82;5.75;;;;;;;12.87;42.83;95974.81;5035199;28;20053;-70
2021/05/03 11:35:26;;;;;;;7.78;5.32;;;;;;;12.39;49.51;95971.88;5011166;28;20534;-69
2021/05/03 11:41:22;;;;;;;6.78;5.38;;;;;;;10.98;49.88;95971.38;5023394;28;20045;-68
2021/05/03 11:43:58;;;;;;;8.52;5.43;;;;;;;10.25;48.26;95972.13;5029911;28;20045;-67
2021/05/03 11:46:33;;;;;;;9.10;5.80;;;;;;;9.82;51.05;95983.44;5029876;28;20080;-67
2021/05/03 11:49:23;;;;;;;7.68;5.70;;;;;;;9.96;52.89;95972.50;5014281;28;20451;-68
2021/05/03 11:51:55;;;;;;;8.23;5.97;;;;;;;10.06;54.34;95970.72;5021556;28;20099;-68
2021/05/03 11:54:42;;;;;;;8.60;5.93;;;;;;;10.57;51.74;95972.84;5010452;28;20045;-68
2021/05/03 11:57:15;;;;;;;8.10;5.97;;;;;;;13.38;47.07;95970.34;5009945;28;20042;-68
2021/05/03 11:59:42;;;;;;;10.60;6.07;;;;;;;11.61;45.94;95961.41;5010985;28;20042;-67
2021/05/03 12:02:10;;;;;;;10.43;6.07;;;;;;;10.39;50.83;95970.66;5028752;28;20487;-68
2021/05/03 12:04:47;;;;;;;8.15;5.53;;;;;;;10.03;50.79;95973.84;5031225;28;20061;-76